Terminal Aerodrome Forecast
Issued by NWS Sterling, VA

Current Version | Previous Version | Text Only | Print | Product List | Glossary Off
Versions: 1 2 3 4 5 6 7 8 9 10 11 12 13 14 15 16 17 18 19

000
FTUS41 KLWX 301000 AAA
TAFMRB
TAF AMD
KMRB 301011Z 3010/3106 31014G28KT P6SM SCT040
     FM302100 31022G35KT P6SM SCT040
     FM310400 31016G22KT P6SM FEW250=

USA.gov is the U.S. government's official web portal to all federal, state and local government web resources and services.